Pagina principale
METAR-TAF:

METAR-TAF

Aeroporti :

Aeroporto di Lugano-Agno

Lugano, Svizzera

latitudine: 46-00N, longitudine: 008-58E, altezza: 273 m

Osservazione

Il bollettino è stato emesso 20 minuti fa, alle 15:50 UTC
Vento 6 kt da sud, variando fra sud/sud-est e sud/sud-ovest
Temperature 22°C
Umidità 50%
Pressione 1014 hPa
Visibilità 10 km o più
Poco nuvoloso ad un'altezza di 5000 ft

METAR: LSZA 311550Z 19006KT 150V210 9999 FEW050 22/11 Q1014 NOSIG

Ora: 18:10 (16:10 UTC)

Previsione

Il bollettino è stato emesso 1 ora e 45 minuti fa, alle 14:25 UTC
Previsione valida dal 31 alle 15 UTC al 31 alle 24 UTC
Vento 7 kt da sud
Visibilità 10 km o più
Poco nuvoloso ad un'altezza di 5000 ft
Evoluzione graduale
dal 31 alle 17 UTC al 31 alle 19 UTC
Visibilità 10 km o più
nessuna nube inferiore a 1500 m e nessun cumulonembo

TAF: LSZA 311425Z 3115/3124 19007KT 9999 FEW050 BECMG 3117/3119 CAVOK

Osservazioni e previsioni meteorologiche di più di 4000 aeroporti (messaggi METAR e TAF).

Le stazioni disponibili sono rappresentate dai dischi gialli e rossi sulla carta.

Puntare il mouse per vedere il nome della stazione.

Clicca sopra per visualizzare le osservazioni e previsioni meteorologiche.

Per cambiare la mappa : fare clic sui pulsanti verdi con una croce nera per ingrandire, il pulsante verde con un trattino per diminuire, o sulla freccia verde per le mappe adiacenti.


METAR-TAF: